Date,TemperatureHighF,TemperatureAvgF,TemperatureLowF,DewpointHighF,DewpointAvgF,DewpointLowF,HumidityHigh,HumidityAvg,HumidityLow,PressureMaxIn,PressureMinIn,WindSpeedMaxMPH,WindSpeedAvgMPH,GustSpeedMaxMPH,PrecipitationSumIn
2013-1-1,35.2,28.9,15.6,29.8,18.6,4.1,86,66,53,29.97,29.71,15,2,16,0.02
2013-1-2,26.6,15.9,5.1,18.5,5.9,-8.0,82,65,49,30.15,29.91,9,2,17,0.00
2013-1-3,23.1,11.1,-1.8,6.6,-1.4,-9.1,78,58,33,30.25,29.98,9,1,10,2.06
2013-1-4,36.3,24.2,7.3,24.5,16.9,3.2,90,74,60,30.04,29.77,9,1,15,1.72
2013-1-5,39.5,30.8,17.8,25.5,20.6,14.5,88,67,43,30.30,29.81,13,2,17,0.09
2013-1-6,40.4,28.4,18.2,30.5,23.7,15.0,93,83,64,30.28,29.93,13,1,14,0.10
2013-1-7,35.1,26.3,15.0,28.6,19.5,11.4,96,77,45,30.43,29.96,15,1,16,0.01
2013-1-8,43.5,26.1,12.0,30.9,20.9,9.6,93,82,58,30.38,30.26,14,1,14,0.12
2013-1-9,42.2,30.9,17.2,35.7,26.5,15.3,96,84,64,30.43,29.99,9,1,11,0.07
2013-1-10,45.1,39.7,29.1,32.6,27.9,24.3,83,63,54,30.57,30.02,16,3,18,0.01
2013-1-11,38.2,31.0,21.8,33.5,27.0,19.8,100,86,69,30.56,30.23,6,0,6,0.16
2013-1-12,40.1,35.9,33.0,40.0,35.9,32.8,100,100,99,30.25,30.13,2,0,3,0.03
2013-1-13,46.4,40.9,34.5,46.4,40.9,34.4,100,100,100,30.17,29.99,6,0,7,0.00
2013-1-14,58.8,45.8,38.2,52.5,40.2,28.0,100,83,54,30.31,29.86,13,1,16,0.00
2013-1-15,40.6,34.4,27.9,28.7,26.3,24.6,90,73,56,30.34,30.23,8,0,11,0.00
2013-1-16,31.8,30.3,28.1,31.8,29.4,25.3,100,96,88,30.27,29.79,3,0,3,0.00
2013-1-17,40.3,30.2,21.0,36.3,24.7,11.0,100,81,50,30.12,29.80,11,0,11,0.28
2013-1-18,27.0,18.9,13.7,12.0,1.4,-4.4,65,47,31,30.45,30.06,13,2,18,0.00
2013-1-19,45.3,34.2,18.1,31.4,21.4,6.4,77,59,49,30.38,29.86,27,4,27,0.06
2013-1-20,51.7,38.5,26.6,32.7,24.7,11.0,76,58,37,29.95,29.52,18,5,38,0.00
2013-1-21,27.0,22.8,16.4,19.4,9.7,2.9,91,59,43,30.09,29.80,12,1,16,0.00
2013-1-22,23.2,18.1,9.2,19.4,7.7,-0.9,91,65,41,30.09,29.76,12,2,16,0.40
2013-1-23,13.5,8.0,-0.7,0.3,-8.7,-14.1,67,47,28,30.16,30.06,10,1,21,1.94
2013-1-24,17.5,8.4,-2.3,-7.2,-10.9,-13.4,69,42,27,30.25,30.06,16,2,17,0.56
2013-1-25,22.2,14.5,7.0,7.5,-7.3,-21.7,69,37,27,30.44,30.07,12,1,227,0.87
2013-1-26,22.5,15.5,7.4,9.2,0.5,-7.6,84,54,29,30.26,30.02,12,2,14,3.35
2013-1-27,28.9,18.8,10.2,3.3,0.7,-3.6,64,46,29,30.50,30.24,9,1,15,1.56
2013-1-28,29.0,21.8,13.9,22.5,12.9,2.8,93,70,43,30.48,30.04,8,0,8,0.00
2013-1-29,33.4,28.1,20.9,31.0,25.5,18.4,97,90,82,30.21,30.05,6,0,6,0.10
2013-1-30,57.0,29.8,31.8,56.7,41.7,17.3,100,81,50,30.16,29.42,18,2,20,0.18
2013-1-31,59.9,45.3,28.5,59.3,37.3,15.7,100,75,46,29.58,28.94,33,7,33,0.27